sensor_id;sensor_type;location;lat;lon;timestamp;pressure;altitude;pressure_sealevel;temperature;humidity
30339;BME280;795;49.296;11.348;2022-09-09T00:02:22;96066.50;;;11.58;100.00
30339;BME280;795;49.296;11.348;2022-09-09T00:07:52;96099.13;;;11.77;100.00
30339;BME280;795;49.296;11.348;2022-09-09T00:10:32;96093.84;;;11.84;100.00
30339;BME280;795;49.296;11.348;2022-09-09T00:13:22;96066.19;;;11.75;100.00
30339;BME280;795;49.296;11.348;2022-09-09T00:16:09;96084.09;;;11.83;100.00
30339;BME280;795;49.296;11.348;2022-09-09T00:19:08;96087.91;;;11.74;100.00
30339;BME280;795;49.296;11.348;2022-09-09T00:22:06;96091.59;;;11.73;100.00
30339;BME280;795;49.296;11.348;2022-09-09T00:24:47;96090.75;;;11.72;100.00
30339;BME280;795;49.296;11.348;2022-09-09T00:27:26;96087.72;;;11.75;100.00
30339;BME280;795;49.296;11.348;2022-09-09T00:30:17;96066.06;;;11.54;100.00
30339;BME280;795;49.296;11.348;2022-09-09T00:32:55;96090.31;;;11.69;100.00
30339;BME280;795;49.296;11.348;2022-09-09T00:35:34;96045.28;;;11.48;100.00
30339;BME280;795;49.296;11.348;2022-09-09T00:38:34;96089.78;;;11.65;100.00
30339;BME280;795;49.296;11.348;2022-09-09T00:41:51;96078.94;;;11.59;100.00
30339;BME280;795;49.296;11.348;2022-09-09T00:44:36;96075.97;;;11.54;100.00
30339;BME280;795;49.296;11.348;2022-09-09T00:47:38;96072.00;;;11.50;100.00
30339;BME280;795;49.296;11.348;2022-09-09T00:53:38;96070.44;;;11.55;100.00
30339;BME280;795;49.296;11.348;2022-09-09T00:56:28;96063.34;;;11.40;100.00
30339;BME280;795;49.296;11.348;2022-09-09T00:59:52;96087.94;;;11.66;100.00
30339;BME280;795;49.296;11.348;2022-09-09T01:12:02;96086.78;;;11.68;100.00
30339;BME280;795;49.296;11.348;2022-09-09T01:17:22;96081.25;;;11.70;100.00
30339;BME280;795;49.296;11.348;2022-09-09T01:20:15;96100.59;;;11.80;100.00
30339;BME280;795;49.296;11.348;2022-09-09T01:26:46;96081.44;;;11.60;100.00
30339;BME280;795;49.296;11.348;2022-09-09T01:29:18;96058.19;;;11.53;100.00
30339;BME280;795;49.296;11.348;2022-09-09T01:32:37;96074.41;;;11.59;100.00
30339;BME280;795;49.296;11.348;2022-09-09T01:34:51;96078.63;;;11.76;100.00
30339;BME280;795;49.296;11.348;2022-09-09T01:37:18;96089.78;;;11.88;100.00
30339;BME280;795;49.296;11.348;2022-09-09T01:39:45;96094.22;;;11.95;100.00
30339;BME280;795;49.296;11.348;2022-09-09T01:42:16;96086.81;;;12.12;100.00
30339;BME280;795;49.296;11.348;2022-09-09T01:44:43;96095.72;;;12.13;100.00
30339;BME280;795;49.296;11.348;2022-09-09T01:47:10;96096.28;;;12.08;100.00
30339;BME280;795;49.296;11.348;2022-09-09T01:49:37;96078.53;;;12.14;100.00
30339;BME280;795;49.296;11.348;2022-09-09T01:52:04;96075.94;;;12.20;100.00
30339;BME280;795;49.296;11.348;2022-09-09T01:54:33;96070.00;;;12.25;100.00
30339;BME280;795;49.296;11.348;2022-09-09T02:00:13;96056.63;;;12.31;100.00
30339;BME280;795;49.296;11.348;2022-09-09T02:08:48;96076.16;;;12.69;100.00
30339;BME280;795;49.296;11.348;2022-09-09T02:11:20;96070.66;;;12.62;100.00
30339;BME280;795;49.296;11.348;2022-09-09T02:13:53;96062.72;;;12.54;100.00
30339;BME280;795;49.296;11.348;2022-09-09T02:16:42;96066.91;;;12.78;100.00
30339;BME280;795;49.296;11.348;2022-09-09T02:19:25;96055.56;;;12.83;100.00
30339;BME280;795;49.296;11.348;2022-09-09T02:21:58;96077.50;;;13.01;100.00
30339;BME280;795;49.296;11.348;2022-09-09T02:24:30;96074.63;;;13.02;100.00
30339;BME280;795;49.296;11.348;2022-09-09T02:27:05;96079.75;;;12.97;100.00
30339;BME280;795;49.296;11.348;2022-09-09T02:29:41;96078.47;;;12.93;100.00
30339;BME280;795;49.296;11.348;2022-09-09T02:32:17;96043.94;;;12.82;100.00
30339;BME280;795;49.296;11.348;2022-09-09T02:34:53;96034.97;;;12.75;100.00
30339;BME280;795;49.296;11.348;2022-09-09T02:37:29;96071.47;;;12.99;100.00
30339;BME280;795;49.296;11.348;2022-09-09T02:39:58;96070.44;;;13.00;100.00
30339;BME280;795;49.296;11.348;2022-09-09T02:42:25;96069.63;;;12.99;100.00
30339;BME280;795;49.296;11.348;2022-09-09T02:44:52;96075.63;;;13.01;100.00
30339;BME280;795;49.296;11.348;2022-09-09T02:47:39;96065.25;;;12.98;100.00
30339;BME280;795;49.296;11.348;2022-09-09T02:50:35;96068.84;;;13.05;100.00
30339;BME280;795;49.296;11.348;2022-09-09T02:53:21;96047.16;;;12.92;100.00
30339;BME280;795;49.296;11.348;2022-09-09T02:56:15;96068.69;;;13.07;100.00
30339;BME280;795;49.296;11.348;2022-09-09T02:58:43;96065.28;;;13.19;100.00
30339;BME280;795;49.296;11.348;2022-09-09T03:01:10;96060.06;;;13.18;100.00
30339;BME280;795;49.296;11.348;2022-09-09T03:03:38;96062.00;;;13.24;100.00
30339;BME280;795;49.296;11.348;2022-09-09T03:06:05;96047.22;;;12.99;100.00
30339;BME280;795;49.296;11.348;2022-09-09T03:08:32;96044.72;;;12.97;100.00
30339;BME280;795;49.296;11.348;2022-09-09T03:10:59;96063.38;;;12.99;100.00
30339;BME280;795;49.296;11.348;2022-09-09T03:13:29;96048.69;;;12.80;100.00
30339;BME280;795;49.296;11.348;2022-09-09T03:15:56;96053.75;;;12.90;100.00
30339;BME280;795;49.296;11.348;2022-09-09T03:18:24;96055.44;;;12.91;100.00
30339;BME280;795;49.296;11.348;2022-09-09T03:20:51;96054.78;;;12.89;100.00
30339;BME280;795;49.296;11.348;2022-09-09T03:23:20;96063.28;;;12.86;100.00
30339;BME280;795;49.296;11.348;2022-09-09T03:25:49;96056.56;;;12.82;100.00
30339;BME280;795;49.296;11.348;2022-09-09T03:28:18;96066.44;;;12.75;100.00
30339;BME280;795;49.296;11.348;2022-09-09T03:30:45;96061.00;;;12.68;100.00
30339;BME280;795;49.296;11.348;2022-09-09T03:33:12;96059.44;;;12.59;100.00
30339;BME280;795;49.296;11.348;2022-09-09T03:35:45;96042.19;;;12.53;100.00
30339;BME280;795;49.296;11.348;2022-09-09T03:38:14;96052.44;;;12.64;100.00
30339;BME280;795;49.296;11.348;2022-09-09T03:40:53;96064.91;;;12.65;100.00
30339;BME280;795;49.296;11.348;2022-09-09T03:43:26;96064.78;;;12.74;100.00
30339;BME280;795;49.296;11.348;2022-09-09T03:45:54;96068.13;;;12.76;100.00
30339;BME280;795;49.296;11.348;2022-09-09T03:48:25;96065.06;;;12.79;100.00
30339;BME280;795;49.296;11.348;2022-09-09T03:50:55;96061.59;;;12.85;100.00
30339;BME280;795;49.296;11.348;2022-09-09T03:53:25;96039.06;;;12.71;100.00
30339;BME280;795;49.296;11.348;2022-09-09T03:55:55;96056.13;;;12.78;100.00
30339;BME280;795;49.296;11.348;2022-09-09T03:58:27;96068.25;;;12.89;100.00
30339;BME280;795;49.296;11.348;2022-09-09T04:01:04;96046.53;;;12.69;100.00
30339;BME280;795;49.296;11.348;2022-09-09T04:03:32;96070.94;;;12.89;100.00
30339;BME280;795;49.296;11.348;2022-09-09T04:06:02;96065.44;;;12.97;100.00
30339;BME280;795;49.296;11.348;2022-09-09T04:08:31;96069.81;;;12.98;100.00
30339;BME280;795;49.296;11.348;2022-09-09T04:11:00;96072.78;;;13.03;100.00
30339;BME280;795;49.296;11.348;2022-09-09T04:13:34;96076.78;;;13.07;100.00
30339;BME280;795;49.296;11.348;2022-09-09T04:16:03;96037.28;;;12.99;100.00
30339;BME280;795;49.296;11.348;2022-09-09T04:18:31;96029.00;;;13.01;100.00
30339;BME280;795;49.296;11.348;2022-09-09T04:20:58;96055.25;;;13.13;100.00
30339;BME280;795;49.296;11.348;2022-09-09T04:23:28;96030.63;;;12.95;100.00
30339;BME280;795;49.296;11.348;2022-09-09T04:26:00;96038.97;;;13.00;100.00
30339;BME280;795;49.296;11.348;2022-09-09T04:28:32;96059.75;;;13.06;100.00
30339;BME280;795;49.296;11.348;2022-09-09T04:31:22;96044.09;;;12.95;100.00
30339;BME280;795;49.296;11.348;2022-09-09T04:33:51;96062.53;;;12.98;100.00
30339;BME280;795;49.296;11.348;2022-09-09T04:36:19;96053.19;;;12.94;100.00
30339;BME280;795;49.296;11.348;2022-09-09T04:38:46;96035.16;;;12.74;100.00
30339;BME280;795;49.296;11.348;2022-09-09T04:41:15;96048.50;;;12.82;100.00
30339;BME280;795;49.296;11.348;2022-09-09T04:43:43;96006.72;;;12.50;100.00
30339;BME280;795;49.296;11.348;2022-09-09T04:46:12;96049.38;;;12.68;100.00
30339;BME280;795;49.296;11.348;2022-09-09T04:48:39;96048.47;;;12.60;100.00
30339;BME280;795;49.296;11.348;2022-09-09T04:51:12;96049.25;;;12.54;100.00
30339;BME280;795;49.296;11.348;2022-09-09T04:53:39;96051.53;;;12.57;100.00
30339;BME280;795;49.296;11.348;2022-09-09T04:56:13;96065.41;;;12.54;100.00
30339;BME280;795;49.296;11.348;2022-09-09T04:58:41;96065.78;;;12.51;100.00
30339;BME280;795;49.296;11.348;2022-09-09T05:01:17;96070.22;;;12.59;100.00
30339;BME280;795;49.296;11.348;2022-09-09T05:03:46;96066.38;;;12.68;100.00
30339;BME280;795;49.296;11.348;2022-09-09T05:06:17;96060.34;;;12.66;100.00
30339;BME280;795;49.296;11.348;2022-09-09T05:08:46;96049.13;;;12.62;100.00
30339;BME280;795;49.296;11.348;2022-09-09T05:11:26;96034.63;;;12.42;100.00
30339;BME280;795;49.296;11.348;2022-09-09T05:13:54;96071.53;;;12.48;100.00
30339;BME280;795;49.296;11.348;2022-09-09T05:16:21;96064.69;;;12.67;100.00
30339;BME280;795;49.296;11.348;2022-09-09T05:18:50;96067.41;;;12.67;100.00
30339;BME280;795;49.296;11.348;2022-09-09T05:21:24;96070.81;;;12.76;100.00
30339;BME280;795;49.296;11.348;2022-09-09T05:23:53;96071.47;;;12.78;100.00
30339;BME280;795;49.296;11.348;2022-09-09T05:26:22;96074.03;;;12.86;100.00
30339;BME280;795;49.296;11.348;2022-09-09T05:28:49;96077.69;;;12.99;100.00
30339;BME280;795;49.296;11.348;2022-09-09T05:31:18;96080.56;;;13.12;100.00
30339;BME280;795;49.296;11.348;2022-09-09T05:33:48;96078.75;;;13.19;100.00
30339;BME280;795;49.296;11.348;2022-09-09T05:36:21;96057.03;;;13.27;100.00
30339;BME280;795;49.296;11.348;2022-09-09T05:38:49;96098.88;;;13.66;100.00
30339;BME280;795;49.296;11.348;2022-09-09T05:41:17;96100.25;;;13.83;100.00
30339;BME280;795;49.296;11.348;2022-09-09T05:43:45;96082.06;;;13.98;100.00
30339;BME280;795;49.296;11.348;2022-09-09T05:46:18;96052.22;;;14.00;100.00
30339;BME280;795;49.296;11.348;2022-09-09T05:48:48;96087.75;;;14.44;100.00
30339;BME280;795;49.296;11.348;2022-09-09T05:51:26;96095.63;;;14.86;100.00
30339;BME280;795;49.296;11.348;2022-09-09T05:53:54;96085.59;;;15.47;100.00
30339;BME280;795;49.296;11.348;2022-09-09T05:56:27;96089.56;;;15.90;100.00
30339;BME280;795;49.296;11.348;2022-09-09T05:58:56;96095.53;;;16.32;100.00
30339;BME280;795;49.296;11.348;2022-09-09T06:01:28;96080.44;;;16.69;100.00
30339;BME280;795;49.296;11.348;2022-09-09T06:03:56;96074.75;;;16.83;100.00
30339;BME280;795;49.296;11.348;2022-09-09T06:06:32;96104.72;;;17.33;100.00
30339;BME280;795;49.296;11.348;2022-09-09T06:09:07;96108.31;;;17.20;100.00
30339;BME280;795;49.296;11.348;2022-09-09T06:11:40;96092.69;;;17.22;100.00
30339;BME280;795;49.296;11.348;2022-09-09T06:14:08;96113.50;;;16.90;100.00
30339;BME280;795;49.296;11.348;2022-09-09T06:16:35;96106.75;;;16.48;100.00
30339;BME280;795;49.296;11.348;2022-09-09T06:19:04;96086.59;;;16.25;100.00
30339;BME280;795;49.296;11.348;2022-09-09T06:21:35;96102.00;;;16.24;100.00
30339;BME280;795;49.296;11.348;2022-09-09T06:24:05;96077.47;;;16.00;100.00
30339;BME280;795;49.296;11.348;2022-09-09T06:26:38;96118.72;;;16.08;100.00
30339;BME280;795;49.296;11.348;2022-09-09T06:29:09;96065.59;;;15.87;100.00
30339;BME280;795;49.296;11.348;2022-09-09T06:31:37;96112.41;;;16.27;100.00
30339;BME280;795;49.296;11.348;2022-09-09T06:34:08;96112.56;;;16.58;100.00
30339;BME280;795;49.296;11.348;2022-09-09T06:36:38;96108.00;;;16.52;100.00
30339;BME280;795;49.296;11.348;2022-09-09T06:39:07;96098.88;;;16.27;100.00
30339;BME280;795;49.296;11.348;2022-09-09T06:41:40;96090.59;;;16.03;100.00
30339;BME280;795;49.296;11.348;2022-09-09T06:44:07;96123.25;;;16.21;100.00
30339;BME280;795;49.296;11.348;2022-09-09T06:46:34;96111.00;;;16.05;100.00
30339;BME280;795;49.296;11.348;2022-09-09T06:49:03;96127.25;;;16.05;100.00
30339;BME280;795;49.296;11.348;2022-09-09T06:51:34;96102.47;;;15.95;100.00
30339;BME280;795;49.296;11.348;2022-09-09T06:54:03;96127.84;;;16.20;100.00
30339;BME280;795;49.296;11.348;2022-09-09T06:56:43;96120.16;;;16.17;100.00
30339;BME280;795;49.296;11.348;2022-09-09T06:59:16;96128.88;;;16.32;100.00
30339;BME280;795;49.296;11.348;2022-09-09T07:01:43;96127.63;;;16.35;100.00
30339;BME280;795;49.296;11.348;2022-09-09T07:04:12;96131.16;;;16.42;100.00
30339;BME280;795;49.296;11.348;2022-09-09T07:06:44;96126.97;;;16.52;100.00
30339;BME280;795;49.296;11.348;2022-09-09T07:09:15;96129.03;;;16.50;100.00
30339;BME280;795;49.296;11.348;2022-09-09T07:11:47;96131.75;;;16.37;100.00
30339;BME280;795;49.296;11.348;2022-09-09T07:14:16;96128.66;;;16.53;100.00
30339;BME280;795;49.296;11.348;2022-09-09T07:16:45;96120.91;;;16.64;100.00
30339;BME280;795;49.296;11.348;2022-09-09T07:19:14;96088.19;;;16.45;100.00
30339;BME280;795;49.296;11.348;2022-09-09T07:21:43;96126.59;;;16.93;100.00
30339;BME280;795;49.296;11.348;2022-09-09T07:24:11;96137.88;;;17.35;100.00
30339;BME280;795;49.296;11.348;2022-09-09T07:26:39;96124.94;;;17.74;100.00
30339;BME280;795;49.296;11.348;2022-09-09T07:29:08;96133.13;;;17.92;100.00
30339;BME280;795;49.296;11.348;2022-09-09T07:31:38;96132.16;;;17.80;100.00
30339;BME280;795;49.296;11.348;2022-09-09T07:34:07;96145.47;;;17.64;100.00
30339;BME280;795;49.296;11.348;2022-09-09T07:36:40;96143.44;;;17.53;100.00
30339;BME280;795;49.296;11.348;2022-09-09T07:39:12;96148.91;;;17.46;100.00
30339;BME280;795;49.296;11.348;2022-09-09T07:41:47;96154.53;;;17.45;100.00
30339;BME280;795;49.296;11.348;2022-09-09T07:44:22;96154.91;;;17.17;100.00
30339;BME280;795;49.296;11.348;2022-09-09T07:46:49;96155.59;;;16.99;100.00
30339;BME280;795;49.296;11.348;2022-09-09T07:49:17;96156.63;;;16.98;100.00
30339;BME280;795;49.296;11.348;2022-09-09T07:51:52;96157.34;;;17.32;100.00
30339;BME280;795;49.296;11.348;2022-09-09T07:54:21;96161.63;;;17.52;100.00
30339;BME280;795;49.296;11.348;2022-09-09T07:56:52;96163.78;;;17.75;100.00
30339;BME280;795;49.296;11.348;2022-09-09T07:59:19;96131.22;;;17.68;100.00
30339;BME280;795;49.296;11.348;2022-09-09T08:03:59;96166.19;;;19.36;100.00
30339;BME280;795;49.296;11.348;2022-09-09T08:06:32;96160.22;;;20.40;94.47
30339;BME280;795;49.296;11.348;2022-09-09T08:09:02;96170.41;;;20.33;95.13
30339;BME280;795;49.296;11.348;2022-09-09T08:11:30;96163.78;;;20.52;88.82
30339;BME280;795;49.296;11.348;2022-09-09T08:14:06;96169.31;;;21.03;87.97
30339;BME280;795;49.296;11.348;2022-09-09T08:16:40;96172.75;;;21.34;87.73
30339;BME280;795;49.296;11.348;2022-09-09T08:19:08;96167.13;;;21.68;83.18
30339;BME280;795;49.296;11.348;2022-09-09T08:21:39;96167.28;;;21.22;84.07
30339;BME280;795;49.296;11.348;2022-09-09T08:24:09;96160.16;;;21.61;82.44
30339;BME280;795;49.296;11.348;2022-09-09T08:26:42;96171.94;;;21.90;81.24
30339;BME280;795;49.296;11.348;2022-09-09T08:29:12;96172.69;;;21.73;82.32
30339;BME280;795;49.296;11.348;2022-09-09T08:31:51;96172.09;;;22.28;80.48
30339;BME280;795;49.296;11.348;2022-09-09T08:34:22;96168.59;;;22.49;76.91
30339;BME280;795;49.296;11.348;2022-09-09T08:36:51;96176.53;;;22.62;77.84
30339;BME280;795;49.296;11.348;2022-09-09T08:39:21;96175.09;;;22.76;74.61
30339;BME280;795;49.296;11.348;2022-09-09T08:42:41;96185.91;;;23.43;70.46
30339;BME280;795;49.296;11.348;2022-09-09T08:45:37;96191.69;;;24.43;67.16
30339;BME280;795;49.296;11.348;2022-09-09T08:48:37;96187.59;;;24.46;60.82
30339;BME280;795;49.296;11.348;2022-09-09T08:51:08;96181.13;;;22.78;66.98
30339;BME280;795;49.296;11.348;2022-09-09T08:53:47;96180.41;;;23.04;70.49
30339;BME280;795;49.296;11.348;2022-09-09T08:56:25;96194.84;;;24.30;65.28
30339;BME280;795;49.296;11.348;2022-09-09T08:58:55;96188.03;;;23.84;66.08
30339;BME280;795;49.296;11.348;2022-09-09T09:05:14;96187.78;;;21.76;71.78
30339;BME280;795;49.296;11.348;2022-09-09T09:08:16;96180.94;;;21.62;78.26
30339;BME280;795;49.296;11.348;2022-09-09T09:10:51;96180.59;;;21.58;80.13
30339;BME280;795;49.296;11.348;2022-09-09T09:16:03;96183.97;;;23.65;68.13
30339;BME280;795;49.296;11.348;2022-09-09T09:18:33;96173.00;;;23.65;69.10
30339;BME280;795;49.296;11.348;2022-09-09T09:21:42;96177.13;;;24.42;63.92
30339;BME280;795;49.296;11.348;2022-09-09T09:24:45;96174.09;;;24.76;60.30
30339;BME280;795;49.296;11.348;2022-09-09T09:27:31;96172.00;;;25.87;56.96
30339;BME280;795;49.296;11.348;2022-09-09T09:30:22;96177.09;;;26.80;53.42
30339;BME280;795;49.296;11.348;2022-09-09T09:33:08;96177.88;;;27.11;52.09
30339;BME280;795;49.296;11.348;2022-09-09T09:35:41;96171.84;;;27.88;49.61
30339;BME280;795;49.296;11.348;2022-09-09T09:38:24;96178.72;;;27.96;49.33
30339;BME280;795;49.296;11.348;2022-09-09T09:41:11;96180.13;;;28.81;46.30
30339;BME280;795;49.296;11.348;2022-09-09T09:43:41;96171.44;;;28.92;44.92
30339;BME280;795;49.296;11.348;2022-09-09T09:46:25;96171.06;;;26.88;48.70
30339;BME280;795;49.296;11.348;2022-09-09T09:49:08;96171.31;;;26.92;49.92
30339;BME280;795;49.296;11.348;2022-09-09T09:51:35;96167.19;;;26.84;52.39
30339;BME280;795;49.296;11.348;2022-09-09T09:56:44;96176.53;;;26.73;52.66
30339;BME280;795;49.296;11.348;2022-09-09T10:04:45;96156.69;;;27.02;53.37
30339;BME280;795;49.296;11.348;2022-09-09T10:07:20;96162.22;;;26.91;51.21
30339;BME280;795;49.296;11.348;2022-09-09T10:09:57;96159.53;;;27.76;48.85
30339;BME280;795;49.296;11.348;2022-09-09T10:16:45;96170.41;;;29.12;45.50
30339;BME280;795;49.296;11.348;2022-09-09T10:19:46;96136.59;;;29.49;41.27
30339;BME280;795;49.296;11.348;2022-09-09T10:22:33;96145.72;;;29.26;42.46
30339;BME280;795;49.296;11.348;2022-09-09T10:25:34;96150.88;;;27.08;45.86
30339;BME280;795;49.296;11.348;2022-09-09T10:31:30;96151.06;;;28.50;42.91
30339;BME280;795;49.296;11.348;2022-09-09T10:41:00;96146.38;;;25.14;53.41
30339;BME280;795;49.296;11.348;2022-09-09T10:46:53;96133.59;;;24.93;55.27
30339;BME280;795;49.296;11.348;2022-09-09T10:50:08;96125.41;;;25.50;51.25
30339;BME280;795;49.296;11.348;2022-09-09T10:53:32;96116.91;;;25.04;51.69
30339;BME280;795;49.296;11.348;2022-09-09T10:56:10;96099.56;;;23.94;54.82
30339;BME280;795;49.296;11.348;2022-09-09T10:58:51;96123.53;;;23.76;56.86
30339;BME280;795;49.296;11.348;2022-09-09T11:01:30;96086.50;;;26.28;50.10
30339;BME280;795;49.296;11.348;2022-09-09T11:06:46;96127.72;;;25.98;52.31
30339;BME280;795;49.296;11.348;2022-09-09T11:09:23;96125.19;;;24.68;56.33
30339;BME280;795;49.296;11.348;2022-09-09T11:12:00;96115.78;;;25.47;56.09
30339;BME280;795;49.296;11.348;2022-09-09T11:14:59;96120.66;;;23.88;59.94
30339;BME280;795;49.296;11.348;2022-09-09T11:17:45;96103.41;;;22.79;66.15
30339;BME280;795;49.296;11.348;2022-09-09T11:20:14;96104.28;;;22.46;67.21
30339;BME280;795;49.296;11.348;2022-09-09T11:22:55;96107.19;;;22.95;64.53
30339;BME280;795;49.296;11.348;2022-09-09T11:25:40;96101.88;;;25.89;55.32
30339;BME280;795;49.296;11.348;2022-09-09T11:32:14;96103.72;;;25.63;52.84
30339;BME280;795;49.296;11.348;2022-09-09T11:38:29;96103.47;;;23.71;65.11
30339;BME280;795;49.296;11.348;2022-09-09T11:41:08;96103.94;;;22.98;67.55
30339;BME280;795;49.296;11.348;2022-09-09T11:43:51;96104.88;;;22.32;68.92
30339;BME280;795;49.296;11.348;2022-09-09T11:46:32;96102.06;;;22.10;73.73
30339;BME280;795;49.296;11.348;2022-09-09T11:49:25;96112.16;;;22.98;67.35
30339;BME280;795;49.296;11.348;2022-09-09T11:51:53;96099.53;;;22.75;67.63
30339;BME280;795;49.296;11.348;2022-09-09T11:54:34;96077.75;;;23.29;64.50
30339;BME280;795;49.296;11.348;2022-09-09T11:57:35;96095.00;;;22.48;66.90
30339;BME280;795;49.296;11.348;2022-09-09T12:00:05;96092.91;;;24.11;63.12
30339;BME280;795;49.296;11.348;2022-09-09T12:02:33;96089.66;;;25.50;58.09
30339;BME280;795;49.296;11.348;2022-09-09T12:05:12;96091.16;;;26.68;52.73
30339;BME280;795;49.296;11.348;2022-09-09T12:07:56;96072.84;;;24.79;57.67
30339;BME280;795;49.296;11.348;2022-09-09T12:10:40;96079.84;;;25.07;57.00
30339;BME280;795;49.296;11.348;2022-09-09T12:13:28;96091.94;;;24.64;55.17
30339;BME280;795;49.296;11.348;2022-09-09T12:16:01;96101.38;;;26.12;51.67
30339;BME280;795;49.296;11.348;2022-09-09T12:18:47;96085.31;;;25.07;53.35
30339;BME280;795;49.296;11.348;2022-09-09T12:21:34;96074.44;;;24.33;60.00
30339;BME280;795;49.296;11.348;2022-09-09T12:24:13;96072.16;;;23.19;62.62
30339;BME280;795;49.296;11.348;2022-09-09T12:27:23;96068.81;;;24.97;56.67
30339;BME280;795;49.296;11.348;2022-09-09T12:29:57;96048.63;;;25.33;53.34
30339;BME280;795;49.296;11.348;2022-09-09T12:32:29;96047.66;;;25.95;53.04
30339;BME280;795;49.296;11.348;2022-09-09T12:35:10;96056.50;;;26.37;53.35
30339;BME280;795;49.296;11.348;2022-09-09T12:40:30;96050.88;;;27.03;49.98
30339;BME280;795;49.296;11.348;2022-09-09T12:42:58;96050.97;;;25.77;52.88
30339;BME280;795;49.296;11.348;2022-09-09T12:45:33;96045.47;;;25.82;53.29
30339;BME280;795;49.296;11.348;2022-09-09T12:48:12;96031.72;;;25.92;49.39
30339;BME280;795;49.296;11.348;2022-09-09T12:50:50;95993.75;;;26.19;50.03
30339;BME280;795;49.296;11.348;2022-09-09T12:53:36;96035.84;;;25.74;52.42
30339;BME280;795;49.296;11.348;2022-09-09T12:56:19;96034.13;;;25.48;54.16
30339;BME280;795;49.296;11.348;2022-09-09T12:58:51;96029.59;;;25.12;52.88
30339;BME280;795;49.296;11.348;2022-09-09T13:01:32;96022.09;;;24.45;55.07
30339;BME280;795;49.296;11.348;2022-09-09T13:04:00;96030.38;;;24.97;54.84
30339;BME280;795;49.296;11.348;2022-09-09T13:06:31;96035.38;;;25.20;51.26
30339;BME280;795;49.296;11.348;2022-09-09T13:09:02;96036.66;;;26.45;49.83
30339;BME280;795;49.296;11.348;2022-09-09T13:11:42;96016.56;;;26.55;48.20
30339;BME280;795;49.296;11.348;2022-09-09T13:14:32;96027.13;;;27.71;47.21
30339;BME280;795;49.296;11.348;2022-09-09T13:17:05;96031.09;;;27.49;47.04
30339;BME280;795;49.296;11.348;2022-09-09T13:19:38;96023.75;;;26.30;48.49
30339;BME280;795;49.296;11.348;2022-09-09T13:22:34;96026.97;;;26.68;50.87
30339;BME280;795;49.296;11.348;2022-09-09T13:25:20;96036.97;;;27.33;48.26
30339;BME280;795;49.296;11.348;2022-09-09T13:28:24;96043.84;;;27.84;46.24
30339;BME280;795;49.296;11.348;2022-09-09T13:31:05;96040.66;;;28.73;42.40
30339;BME280;795;49.296;11.348;2022-09-09T13:33:39;96044.53;;;27.66;44.52
30339;BME280;795;49.296;11.348;2022-09-09T13:36:13;96034.34;;;25.41;50.63
30339;BME280;795;49.296;11.348;2022-09-09T13:38:57;96024.84;;;25.89;50.49
30339;BME280;795;49.296;11.348;2022-09-09T13:41:44;96028.06;;;25.41;49.59
30339;BME280;795;49.296;11.348;2022-09-09T13:44:26;96008.00;;;24.26;52.88
30339;BME280;795;49.296;11.348;2022-09-09T13:47:18;96036.59;;;23.45;54.82
30339;BME280;795;49.296;11.348;2022-09-09T13:49:46;96043.50;;;22.61;59.84
30339;BME280;795;49.296;11.348;2022-09-09T13:52:18;96032.94;;;22.15;62.07
30339;BME280;795;49.296;11.348;2022-09-09T13:54:52;96013.06;;;21.69;60.94
30339;BME280;795;49.296;11.348;2022-09-09T13:57:25;96032.50;;;21.56;62.47
30339;BME280;795;49.296;11.348;2022-09-09T13:59:53;95993.47;;;21.28;62.79
30339;BME280;795;49.296;11.348;2022-09-09T14:02:36;96030.38;;;21.30;64.34
30339;BME280;795;49.296;11.348;2022-09-09T14:05:06;96036.84;;;21.24;66.74
30339;BME280;795;49.296;11.348;2022-09-09T14:07:33;96033.09;;;21.02;70.31
30339;BME280;795;49.296;11.348;2022-09-09T14:10:00;96041.94;;;20.29;78.11
30339;BME280;795;49.296;11.348;2022-09-09T14:12:27;96054.44;;;18.65;89.03
30339;BME280;795;49.296;11.348;2022-09-09T14:14:54;96046.97;;;17.81;96.74
30339;BME280;795;49.296;11.348;2022-09-09T14:17:21;96061.34;;;17.26;100.00
30339;BME280;795;49.296;11.348;2022-09-09T14:19:48;96044.09;;;16.83;100.00
30339;BME280;795;49.296;11.348;2022-09-09T14:22:15;96043.34;;;17.00;100.00
30339;BME280;795;49.296;11.348;2022-09-09T14:24:42;96040.47;;;17.27;100.00
30339;BME280;795;49.296;11.348;2022-09-09T14:27:09;96053.94;;;19.04;100.00
30339;BME280;795;49.296;11.348;2022-09-09T14:29:36;96052.19;;;20.62;89.51
30339;BME280;795;49.296;11.348;2022-09-09T14:32:04;96036.09;;;22.07;78.22
30339;BME280;795;49.296;11.348;2022-09-09T14:34:36;96044.63;;;23.52;69.38
30339;BME280;795;49.296;11.348;2022-09-09T14:37:03;96048.56;;;23.61;68.30
30339;BME280;795;49.296;11.348;2022-09-09T14:39:30;96052.59;;;24.49;64.51
30339;BME280;795;49.296;11.348;2022-09-09T14:41:57;96058.31;;;24.84;65.35
30339;BME280;795;49.296;11.348;2022-09-09T14:44:24;96058.72;;;24.61;67.03
30339;BME280;795;49.296;11.348;2022-09-09T14:46:51;96057.69;;;23.45;67.29
30339;BME280;795;49.296;11.348;2022-09-09T14:49:18;96057.34;;;22.71;70.11
30339;BME280;795;49.296;11.348;2022-09-09T14:51:45;96060.50;;;20.95;78.33
30339;BME280;795;49.296;11.348;2022-09-09T14:54:12;96055.28;;;20.19;85.94
30339;BME280;795;49.296;11.348;2022-09-09T14:56:39;96052.66;;;19.78;91.26
30339;BME280;795;49.296;11.348;2022-09-09T14:59:06;96036.63;;;19.29;96.58
30339;BME280;795;49.296;11.348;2022-09-09T15:01:34;96061.97;;;18.99;98.88
30339;BME280;795;49.296;11.348;2022-09-09T15:04:05;96086.19;;;19.19;99.07
30339;BME280;795;49.296;11.348;2022-09-09T15:06:35;96078.59;;;19.80;97.46
30339;BME280;795;49.296;11.348;2022-09-09T15:09:05;96063.31;;;21.24;91.02